Latest Weather Observations for Parafield

IDS60801

Issued at 8:31 pm CST Saturday 30 April 2016 (issued every 30 minutes, with the page automatically refreshed every 10 minutes)

About weather observations | Map of weather stations | Latest weather observations for SA | Other Formats
Station Details ID: 023013 Name: PARAFIELD AIRPORT Lat: -34.80 Lon: 138.63 Height: 9.5 m
Data from the previous 72 hours. | See also: Recent months at Parafield
Date/Time
CST
Temp
°C
App
Temp
°C
Dew
Point
Rel
Hum
%
Delta-T
°C
Wind Press
QNH
hPa
Press
MSL
hPa
Rain
since 9 am
mm
Dir
 
Spd
km/h
Gust
km/h
Spd
kts
Gust
kts
30/08:30pm 19.7 14.2 11.7 60 4.4 WNW 32 50 17 27 1008.8 1008.8 0.2
30/08:00pm 19.9 12.8 12.2 61 4.3 WNW 41 57 22 31 1008.0 1008.0 0.2
30/07:30pm 22.0 16.9 10.5 48 6.3 W 28 46 15 25 1006.5 1006.5 0.0
30/07:28pm 21.9 16.2 11.0 50 6.0 WNW 32 50 17 27 1006.6 1006.6 0.0
30/07:19pm 22.4 18.3 11.5 50 6.1 WNW 24 50 13 27 1006.3 1006.3 0.0
30/07:00pm 23.9 20.2 9.5 40 7.8 NW 19 24 10 13 1005.8 1005.8 0.0
30/06:30pm 24.1 20.9 8.5 37 8.4 NW 15 20 8 11 1005.6 1005.6 0.0
30/06:00pm 24.0 20.9 7.2 34 8.8 NNW 13 19 7 10 1005.6 1005.6 0.0
30/05:30pm 25.0 21.0 6.7 31 9.5 NNW 17 24 9 13 1005.7 1005.7 0.0
30/05:00pm 25.6 19.7 5.8 28 10.2 NNW 26 37 14 20 1005.9 1005.9 0.0
30/04:30pm 26.2 19.0 5.2 26 10.7 NNW 32 43 17 23 1006.3 1006.3 0.0
30/04:00pm 26.5 19.7 4.9 25 11.0 NNW 30 43 16 23 1006.4 1006.4 0.0
30/03:48pm 26.4 20.3 4.8 25 11.0 NNW 26 52 14 28 1006.5 1006.5 0.0
30/03:30pm 26.3 20.6 4.7 25 11.0 NW 24 32 13 17 1006.8 1006.8 0.0
30/03:00pm 25.9 19.0 4.4 25 10.8 NW 30 44 16 24 1007.1 1007.1 0.0
30/02:30pm 26.0 19.1 4.5 25 10.8 NW 30 39 16 21 1007.4 1007.4 0.0
30/02:00pm 25.8 18.6 4.9 26 10.6 WNW 32 39 17 21 1007.6 1007.6 0.0
30/01:30pm 26.5 20.9 5.5 26 10.8 NW 24 39 13 21 1008.3 1008.3 0.0
30/01:00pm 26.1 20.1 5.1 26 10.7 NW 26 37 14 20 1008.7 1008.7 0.0
30/12:30pm 26.9 20.6 4.0 23 11.5 NW 26 46 14 25 1009.4 1009.4 0.0
30/12:00pm 25.9 19.8 4.9 26 10.6 NNW 26 35 14 19 1010.2 1010.2 0.0
30/11:30am 25.4 20.6 8.8 35 9.0 NNW 24 32 13 17 1010.9 1010.9 0.0
30/11:00am 24.3 18.8 9.1 38 8.2 N 28 44 15 24 1011.5 1011.5 0.0
30/10:30am 23.0 18.9 11.4 48 6.5 N 24 33 13 18 1012.1 1012.1 0.0
30/10:00am 22.2 18.9 11.6 51 5.9 NNE 20 26 11 14 1012.3 1012.3 0.0
30/09:30am 20.4 17.1 10.8 54 5.2 N 19 28 10 15 1012.7 1012.7 0.0
30/09:00am 19.6 17.2 11.4 59 4.5 NNE 15 20 8 11 1012.9 1012.9 0.0
30/08:30am 18.0 15.9 11.1 64 3.7 NNE 13 15 7 8 1013.0 1013.0 0.0
30/08:00am 15.9 14.3 11.7 76 2.3 NE 11 13 6 7 1013.0 1013.0 0.0
30/07:30am 14.5 12.4 11.1 80 1.8 NNE 13 15 7 8 1013.0 1013.0 0.0
30/07:00am 13.1 10.4 10.5 84 1.4 NNE 15 17 8 9 1012.9 1012.9 0.0
30/06:30am 12.0 9.7 10.4 90 0.8 NNE 13 15 7 8 1012.8 1012.8 0.0
30/06:00am 11.5 10.3 10.4 93 0.6 N 7 9 4 5 1012.8 1012.8 0.0
30/05:30am 11.7 10.5 10.4 92 0.7 NNE 7 9 4 5 1012.8 1012.8 0.0
30/05:00am 12.2 10.5 11.1 93 0.6 NE 11 13 6 7 1012.4 1012.4 0.0
30/04:30am 12.2 11.2 11.1 93 0.6 NNE 7 11 4 6 1012.4 1012.4 0.0
30/04:00am 12.3 11.0 11.4 94 0.5 N 9 11 5 6 1012.4 1012.4 0.0
30/03:30am 11.4 9.8 10.3 93 0.6 N 9 11 5 6 1012.2 1012.2 0.0
30/03:00am 12.7 12.5 11.8 94 0.5 NE 4 7 2 4 1012.2 1012.2 0.0
30/02:30am 12.6 11.8 11.7 94 0.5 NE 7 9 4 5 1012.5 1012.5 0.0
30/02:00am 13.5 13.2 12.6 94 0.5 NNE 6 7 3 4 1012.6 1012.6 0.0
30/01:30am 12.6 11.7 11.3 92 0.7 NE 7 11 4 6 1012.4 1012.4 0.0
30/01:00am 13.4 12.9 12.5 94 0.5 ENE 7 9 4 5 1012.6 1012.6 0.0
30/12:30am 12.7 13.2 11.6 93 0.6 CALM 0 0 0 0 1012.8 1012.8 0.0
30/12:00am 14.2 14.4 13.1 93 0.6 NE 4 6 2 3 1012.9 1012.9 0.0
 
Date/Time
CST
Temp
°C
App
Temp
°C
Dew
Point
Rel
Hum
%
Delta-T
°C
Wind Press
QNH
hPa
Press
MSL
hPa
Rain
since 9 am
mm
Dir
 
Spd
km/h
Gust
km/h
Spd
kts
Gust
kts
29/11:30pm 14.4 15.5 13.4 94 0.6 CALM 0 0 0 0 1012.8 1012.8 0.0
29/11:00pm 13.7 14.5 12.6 93 0.6 CALM 0 0 0 0 1013.0 1013.0 0.0
29/10:59pm 13.5 14.3 12.4 93 0.6 CALM 0 0 0 0 1013.0 1013.0 0.0
29/10:40pm 13.8 14.6 12.7 93 0.6 CALM 0 0 0 0 1012.9 1012.9 0.0
29/10:30pm 13.2 13.8 11.8 91 0.7 CALM 0 0 0 0 1013.0 1013.0 0.0
29/10:00pm 14.8 15.9 13.5 92 0.7 CALM 0 0 0 0 1012.9 1012.9 0.0
29/09:30pm 14.5 15.4 13.0 91 0.8 CALM 0 0 0 0 1012.9 1012.9 0.0
29/09:00pm 15.3 16.2 12.8 85 1.4 CALM 0 0 0 0 1012.6 1012.6 0.0
29/08:30pm 15.5 16.5 13.3 87 1.2 CALM 0 0 0 0 1012.4 1012.4 0.0
29/08:00pm 16.3 16.4 13.8 85 1.4 NE 6 7 3 4 1012.3 1012.3 0.0
29/07:30pm 16.6 17.8 13.9 84 1.5 CALM 0 7 0 4 1012.1 1012.1 0.0
29/07:00pm 17.3 18.6 14.2 82 1.8 CALM 0 0 0 0 1011.9 1011.9 0.0
29/06:30pm 17.6 17.6 13.7 78 2.2 NNW 6 7 3 4 1011.8 1011.8 0.0
29/06:00pm 19.1 19.3 14.1 73 2.9 NW 6 6 3 3 1011.5 1011.5 0.0
29/05:30pm 20.4 20.4 14.1 67 3.7 WNW 7 9 4 5 1011.4 1011.4 0.0
29/05:00pm 21.9 20.6 13.8 60 4.7 WNW 13 17 7 9 1011.2 1011.2 0.0
29/04:30pm 22.6 20.6 13.9 58 5.1 WNW 17 20 9 11 1011.3 1011.3 0.0
29/04:00pm 22.9 21.0 14.2 58 5.1 NW 17 22 9 12 1011.3 1011.3 0.0
29/03:30pm 23.2 21.3 14.2 57 5.3 WNW 17 22 9 12 1011.1 1011.1 0.0
29/03:00pm 23.1 20.5 13.8 55 5.4 WNW 20 26 11 14 1010.7 1010.7 0.0
29/02:30pm 23.4 21.2 14.4 57 5.3 WNW 19 30 10 16 1010.5 1010.5 0.0
29/02:00pm 23.0 20.2 14.3 58 5.1 WNW 22 30 12 16 1010.7 1010.7 0.0
29/01:30pm 22.6 20.0 13.7 57 5.2 NW 20 30 11 16 1010.8 1010.8 0.0
29/01:00pm 22.2 21.1 14.3 61 4.6 NW 13 17 7 9 1010.9 1010.9 0.0
29/12:30pm 21.7 20.6 14.4 63 4.3 N 13 20 7 11 1011.2 1011.2 0.0
29/12:00pm 20.9 19.9 14.5 67 3.7 NNW 13 19 7 10 1011.6 1011.6 0.0
29/11:30am 20.3 18.4 14.2 68 3.5 N 17 22 9 12 1011.9 1011.9 0.0
29/11:00am 19.7 17.8 14.1 70 3.2 N 17 20 9 11 1012.2 1012.2 0.0
29/10:30am 19.7 18.3 14.5 72 3.0 NNE 15 20 8 11 1012.3 1012.3 0.0
29/10:00am 18.8 18.2 14.7 77 2.4 N 11 13 6 7 1012.5 1012.5 0.0
29/09:30am 18.5 18.0 14.8 79 2.2 N 11 17 6 9 1012.6 1012.6 0.0
29/09:00am 18.1 17.9 14.8 81 1.9 N 9 11 5 6 1012.8 1012.8 3.8
29/08:30am 17.7 16.7 14.6 82 1.8 NNE 13 17 7 9 1012.7 1012.7 3.8
29/08:00am 17.2 17.0 14.7 85 1.4 NNE 9 15 5 8 1012.7 1012.7 3.8
29/07:30am 16.8 16.2 14.6 87 1.3 NNE 11 15 6 8 1012.4 1012.4 3.8
29/07:00am 16.8 15.4 14.6 87 1.3 NNE 15 19 8 10 1012.5 1012.5 3.8
29/06:30am 16.9 15.6 14.9 88 1.2 NE 15 17 8 9 1012.4 1012.4 3.6
29/06:00am 16.8 15.6 15.0 89 1.0 NE 15 19 8 10 1012.3 1012.3 3.4
29/05:30am 16.8 15.2 15.0 89 1.0 NE 17 20 9 11 1012.3 1012.3 3.4
29/05:00am 17.1 16.1 14.7 86 1.4 NNE 13 15 7 8 1012.8 1012.8 2.6
29/04:30am 17.4 16.4 14.7 84 1.6 NNE 13 17 7 9 1013.3 1013.3 2.0
29/04:00am 17.8 17.6 14.7 82 1.8 N 9 13 5 7 1013.3 1013.3 1.6
29/03:30am 18.2 18.0 14.7 80 2.0 N 9 11 5 6 1013.2 1013.2 0.8
29/03:00am 19.5 16.4 13.4 68 3.5 NW 22 33 12 18 1013.3 1013.3 0.2
29/02:30am 21.6 17.7 8.8 44 6.8 NNW 19 26 10 14 1013.2 1013.2 0.0
29/02:00am 22.1 18.1 6.7 37 7.9 N 17 24 9 13 1012.8 1012.8 0.0
29/01:30am 22.4 17.8 6.6 36 8.1 N 20 26 11 14 1012.5 1012.5 0.0
29/01:00am 22.3 17.8 6.9 37 7.9 N 20 30 11 16 1012.4 1012.4 0.0
29/12:30am 21.4 19.2 9.3 46 6.5 N 11 17 6 9 1012.1 1012.1 0.0
29/12:00am 23.3 20.4 6.6 34 8.6 NNW 11 15 6 8 1012.1 1012.1 0.0
 
Date/Time
CST
Temp
°C
App
Temp
°C
Dew
Point
Rel
Hum
%
Delta-T
°C
Wind Press
QNH
hPa
Press
MSL
hPa
Rain
since 9 am
mm
Dir
 
Spd
km/h
Gust
km/h
Spd
kts
Gust
kts
28/11:30pm 24.3 19.7 6.6 32 9.2 NNE 20 28 11 15 1011.3 1011.3 0.0
28/11:00pm 24.2 19.4 7.4 34 8.8 NNE 22 30 12 16 1011.1 1011.1 0.0
28/10:30pm 22.7 19.3 9.1 42 7.3 NE 17 24 9 13 1011.4 1011.4 0.0
28/10:00pm 22.4 18.7 10.2 46 6.7 NE 20 24 11 13 1011.5 1011.5 0.0
28/09:30pm 22.6 19.0 10.7 47 6.6 NE 20 26 11 14 1012.1 1012.1 0.0
28/09:00pm 21.9 19.1 12.5 55 5.3 NNE 19 24 10 13 1012.5 1012.5 0.0
28/08:30pm 24.8 20.0 8.7 36 8.7 NNE 24 32 13 17 1012.5 1012.5 0.0
28/08:00pm 24.0 20.4 9.9 41 7.7 NE 19 24 10 13 1012.3 1012.3 0.0
28/07:30pm 23.5 20.3 11.2 46 6.9 NE 19 24 10 13 1012.3 1012.3 0.0
28/07:00pm 23.3 20.5 12.6 51 6.1 NE 19 24 10 13 1012.6 1012.6 0.0
28/06:30pm 23.4 20.5 13.0 52 6.0 NE 20 26 11 14 1012.8 1012.8 0.0
28/06:00pm 23.3 20.8 14.0 56 5.4 NNE 20 26 11 14 1012.8 1012.8 0.0
28/05:30pm 23.4 19.8 14.1 56 5.5 NNE 26 33 14 18 1012.4 1012.4 0.0
28/05:00pm 24.9 21.2 12.8 47 7.0 NNE 24 30 13 16 1012.4 1012.4 0.0
28/04:30pm 25.2 22.7 12.4 45 7.4 NE 17 22 9 12 1012.2 1012.2 0.0
28/04:00pm 25.0 22.1 13.9 50 6.5 NNE 22 33 12 18 1012.4 1012.4 0.0
28/03:30pm 26.4 23.0 12.5 42 8.1 NNE 22 30 12 16 1012.0 1012.0 0.0
28/03:00pm 27.2 24.8 12.8 41 8.4 N 17 20 9 11 1012.1 1012.1 0.0
28/02:30pm 27.5 24.6 12.3 39 8.8 NNE 19 26 10 14 1012.5 1012.5 0.0
28/02:00pm 26.5 24.2 11.8 40 8.4 NNE 15 24 8 13 1012.8 1012.8 0.0
28/01:30pm 24.8 22.2 12.1 45 7.3 NNE 17 24 9 13 1013.5 1013.5 0.0
28/01:00pm 25.5 23.7 13.4 47 7.1 NNE 15 26 8 14 1014.2 1014.2 0.0
28/12:30pm 24.5 24.3 14.6 54 5.9 NE 9 17 5 9 1015.1 1015.1 0.0
28/12:00pm 22.9 21.9 14.5 59 4.9 NNE 13 20 7 11 1015.9 1015.9 0.0
28/11:30am 21.9 21.6 15.5 67 3.8 NNE 11 17 6 9 1016.7 1016.7 0.0
28/11:00am 20.1 20.3 14.7 71 3.2 NE 7 15 4 8 1017.1 1017.1 0.0
28/10:30am 19.6 18.5 14.4 72 3.0 N 13 17 7 9 1017.6 1017.6 0.0
28/10:00am 18.9 18.6 14.4 75 2.6 NNE 9 13 5 7 1017.9 1017.9 0.0
28/09:30am 18.3 18.5 14.2 77 2.4 N 6 9 3 5 1018.0 1018.0 0.0
28/09:00am 18.0 18.1 14.5 80 2.0 ENE 7 17 4 9 1017.9 1017.9 0.0
28/08:30am 17.8 18.9 13.5 76 2.4 CALM 0 0 0 0 1018.0 1018.0 0.0
28/08:00am 17.6 17.1 13.9 79 2.1 NW 9 13 5 7 1018.4 1018.4 0.0
28/07:30am 16.6 16.1 13.9 84 1.5 NNE 9 9 5 5 1017.6 1017.6 0.0
28/07:00am 15.7 15.3 13.0 84 1.5 N 7 11 4 6 1017.1 1017.1 0.0
28/06:30am 15.7 16.6 12.8 83 1.6 CALM 0 0 0 0 1016.5 1016.5 0.0
28/06:00am 16.0 15.8 13.1 83 1.6 SSW 6 6 3 3 1016.2 1016.2 0.0
28/05:30am 16.6 16.6 13.5 82 1.7 SSE 6 9 3 5 1015.9 1015.9 0.0
28/05:00am 16.4 16.3 13.9 85 1.4 SSW 7 9 4 5 1016.2 1016.2 0.0
28/04:30am 16.2 16.1 13.3 83 1.6 SE 6 7 3 4 1015.9 1015.9 0.0
28/04:00am 16.6 16.6 14.1 85 1.4 S 7 9 4 5 1016.2 1016.2 0.0
28/03:30am 16.1 15.2 13.6 85 1.4 SSW 11 15 6 8 1016.2 1016.2 0.0
28/03:00am 15.6 16.6 13.3 86 1.3 CALM 0 0 0 0 1016.1 1016.1 0.0
28/02:30am 16.2 16.0 13.5 84 1.5 WSW 7 9 4 5 1015.9 1015.9 0.0
28/02:00am 17.0 16.9 13.9 82 1.8 SSW 7 9 4 5 1015.6 1015.6 0.0
28/01:30am 17.7 16.7 14.6 82 1.8 SSW 13 15 7 8 1015.5 1015.5 0.0
28/01:02am 17.6 17.6 15.2 86 1.4 SW 9 11 5 6 1015.3 1015.3 0.0
28/01:00am 17.5 17.8 15.1 86 1.4 SW 7 11 4 6 1015.4 1015.4 0.0
28/12:49am 18.1 18.6 15.5 85 1.5 SW 7 11 4 6 1015.3 1015.3 0.0
28/12:30am 18.1 18.1 15.2 83 1.7 SSW 9 15 5 8 1015.1 1015.1 0.0
28/12:00am 18.3 17.5 14.0 76 2.5 SW 11 13 6 7 1014.7 1014.7 0.0
 
Date/Time
CST
Temp
°C
App
Temp
°C
Dew
Point
Rel
Hum
%
Delta-T
°C
Wind Press
QNH
hPa
Press
MSL
hPa
Rain
since 9 am
mm
Dir
 
Spd
km/h
Gust
km/h
Spd
kts
Gust
kts
27/11:30pm 18.7 17.2 13.1 70 3.2 W 13 17 7 9 1014.5 1014.5 0.0
27/11:00pm 18.7 19.0 12.2 66 3.6 NNE 2 9 1 5 1014.1 1014.1 0.0
27/10:30pm 19.5 20.0 12.8 65 3.8 NNW 2 7 1 4 1014.1 1014.1 0.0
27/10:00pm 20.1 19.9 13.1 64 4.0 SSE 6 7 3 4 1013.9 1013.9 0.0
27/09:30pm 20.2 19.2 12.4 61 4.4 S 9 11 5 6 1014.1 1014.1 0.0
27/09:00pm 20.8 19.1 12.5 59 4.7 WSW 13 15 7 8 1013.9 1013.9 0.0

Other Formats:

Comma delimited format used in spreadsheet applications
http://www.bom.gov.au/fwo/IDS60801/IDS60801.95677.axf

JavaScript Object Notation format (JSON) in row-major order
http://www.bom.gov.au/fwo/IDS60801/IDS60801.95677.json